Главная страница
METAR-TAF:

METAR-TAF

Аэропорты :

Гумрак

Волгоград, Россия

широта: 48-47N, долгота: 044-22E, высота над уровнем моря: 145 м

Текущие метеонаблюдения

Эта сводка был подготовлена 34 минут назад, в 13:00 UTC
Ветер 12 Узел от западно-северо-западный, изменяющийся между западный и северно-северо-западный
Температура 31°C
Влажность 21%
Давление 1014 hPa
Видимость 10 км и более
Нет облачности ниже 1500 м, и нет кучево-дождевой облачности

METAR: URWW 141300Z 30006MPS 260V330 CAVOK 31/06 Q1014 R24/010070 NOSIG

Время: 16:34 (13:34 UTC)

Прогноз

Эта сводка был подготовлена 2 часа и 34 минут назад, в 11:00 UTC
Прогноз действительный с 14-го 12 UTC до 14-го 21 UTC
Ветер 10 Узел от северно-северо-западный с порывами до 19 Узел
Видимость 10 км и более
Отдельные облака на высоте 4000 фута
временами
С 14-го 12 UTC до 14-го 21 UTC
Ветер 12 Узел от западно-северо-западный с порывами до 21 Узел

TAF: URWW 141100Z 1412/1421 33005G10MPS 9999 SCT040 TEMPO 1412/1421 30006G11MPS

Метеонаблюдения и прогнозы для более 4000 аэропортов (сводки METAR и TAF).

Имеющиеся станции представлены на карте желтыми и красными точками.

Чтобы увидеть название станции, наведите на нее мышь.

Затем щелкните, чтобы увидеть метеонаблюдения и метеопрогнозы.

Управление картой: чтобы увеличить масштаб, щелкните зеленые кнопки с черным крестиком; чтобы уменьшить масштаб, щелкните зеленую кнопку с тире; для просмотра соседних карт щелкайте зеленые стрелки.


METAR-TAF: